Time;durP1;ratioP1;P1;durP2;ratioP2;P2;SDS_P1;SDS_P2;PMS_P1;PMS_P2;Temp;Humidity;BMP_temperature;BMP_pressure;BME280_temperature;BME280_humidity;BME280_pressure;Samples;Min_cycle;Max_cycle;Signal;HPM_P1;HPM_P2
2023/02/10 00:00:41;;;;;;;;;;;;;;;-0.86;68.91;102290.99;107845;1259;59661;-87
2023/02/10 00:03:23;;;;;;;;;;;;;;;-0.73;69.05;102287.91;108178;1256;76509;-87
2023/02/10 00:05:49;;;;;;;;;;;;;;;-0.64;69.00;102291.85;107832;1256;61123;-87
2023/02/10 00:08:16;;;;;;;;;;;;;;;-0.57;68.95;102303.06;107180;1257;125163;-87
2023/02/10 00:10:42;;;;;;;;;;;;;;;-0.51;69.16;102300.34;107252;1256;61501;-87
2023/02/10 00:13:08;;;;;;;;;;;;;;;-0.44;69.12;102304.08;107141;1262;124774;-87
2023/02/10 00:15:36;;;;;;;;;;;;;;;-0.38;69.22;102301.16;107193;1262;61281;-88
2023/02/10 00:18:03;;;;;;;;;;;;;;;-0.35;69.15;102301.69;107218;1256;65512;-87
2023/02/10 00:20:35;;;;;;;;;;;;;;;-0.35;69.15;102303.69;107033;1257;124054;-88
2023/02/10 00:23:01;;;;;;;;;;;;;;;-0.39;69.18;102297.81;107174;1262;61378;-87
2023/02/10 00:25:27;;;;;;;;;;;;;;;-0.43;69.09;102289.20;107575;1257;124230;-89
2023/02/10 00:27:54;;;;;;;;;;;;;;;-0.49;69.20;102292.97;107688;1257;60201;-88
2023/02/10 00:30:20;;;;;;;;;;;;;;;-0.53;69.37;102290.16;107494;1260;59831;-88
2023/02/10 00:32:46;;;;;;;;;;;;;;;-0.57;69.62;102291.15;107442;1256;124128;-89
2023/02/10 00:35:45;;;;;;;;;;;;;;;-0.62;69.80;102285.90;107416;1256;61375;-89
2023/02/10 00:38:11;;;;;;;;;;;;;;;-0.65;69.82;102282.46;107232;1256;124265;-89
2023/02/10 00:40:37;;;;;;;;;;;;;;;-0.69;70.06;102292.96;107165;1257;61241;-89
2023/02/10 00:43:04;;;;;;;;;;;;;;;-0.70;70.21;102297.72;107062;1257;124950;-89
2023/02/10 00:45:31;;;;;;;;;;;;;;;-0.68;70.50;102303.42;107334;1261;59643;-87
2023/02/10 00:47:57;;;;;;;;;;;;;;;-0.65;70.68;102313.00;107175;1262;59832;-86
2023/02/10 00:50:24;;;;;;;;;;;;;;;-0.65;70.74;102314.06;107292;1256;124242;-85
2023/02/10 00:52:50;;;;;;;;;;;;;;;-0.65;70.80;102315.09;107129;1256;61271;-85
2023/02/10 00:55:16;;;;;;;;;;;;;;;-0.66;70.99;102314.30;107153;1255;125018;-86
2023/02/10 00:57:43;;;;;;;;;;;;;;;-0.65;71.56;102316.66;107321;1262;61455;-86
2023/02/10 01:00:09;;;;;;;;;;;;;;;-0.59;71.62;102325.25;107874;1257;61308;-86
2023/02/10 01:02:37;;;;;;;;;;;;;;;-0.52;71.77;102329.38;107426;1255;125783;-86
2023/02/10 01:05:05;;;;;;;;;;;;;;;-0.45;72.03;102328.10;107235;1256;73577;-86
2023/02/10 01:07:32;;;;;;;;;;;;;;;-0.38;72.09;102325.86;107160;1257;125435;-86
2023/02/10 01:09:58;;;;;;;;;;;;;;;-0.29;72.50;102329.31;107252;1256;61900;-88
2023/02/10 01:12:24;;;;;;;;;;;;;;;-0.19;72.44;102330.75;107194;1260;61378;-88
2023/02/10 01:14:50;;;;;;;;;;;;;;;-0.08;72.99;102339.34;107173;1256;124031;-88
2023/02/10 01:17:17;;;;;;;;;;;;;;;0.03;72.92;102340.90;107282;1256;61409;-87
2023/02/10 01:20:15;;;;;;;;;;;;;;;0.09;73.26;102342.52;107030;1260;124750;-88
2023/02/10 01:22:41;;;;;;;;;;;;;;;0.14;72.97;102340.05;107250;1256;71169;-87
2023/02/10 01:25:08;;;;;;;;;;;;;;;0.20;73.30;102341.29;107411;1255;125141;-87
2023/02/10 01:27:34;;;;;;;;;;;;;;;0.29;73.43;102337.27;107370;1255;60626;-87
2023/02/10 01:30:01;;;;;;;;;;;;;;;0.39;73.47;102332.13;107000;1257;61365;-87
2023/02/10 01:32:29;;;;;;;;;;;;;;;0.48;73.56;102326.86;106929;1262;125041;-87
2023/02/10 01:34:57;;;;;;;;;;;;;;;0.58;73.79;102321.75;107370;1257;72823;-88
2023/02/10 01:37:23;;;;;;;;;;;;;;;0.65;73.63;102315.13;107226;1262;125337;-88
2023/02/10 01:39:49;;;;;;;;;;;;;;;0.70;73.55;102312.13;107193;1256;61441;-88
2023/02/10 01:42:16;;;;;;;;;;;;;;;0.76;73.55;102298.29;107051;1257;61394;-89
2023/02/10 01:44:42;;;;;;;;;;;;;;;0.82;73.60;102294.02;107060;1256;124869;-88
2023/02/10 01:47:08;;;;;;;;;;;;;;;0.88;73.66;102293.52;107268;1256;61305;-87
2023/02/10 01:49:38;;;;;;;;;;;;;;;0.91;73.55;102292.19;107201;1257;124167;-87
2023/02/10 01:52:10;;;;;;;;;;;;;;;0.90;73.35;102290.21;107221;1255;61285;-87
2023/02/10 01:54:41;;;;;;;;;;;;;;;0.86;73.30;102292.99;107239;1261;73518;-87
2023/02/10 01:57:07;;;;;;;;;;;;;;;0.80;73.37;102295.56;107218;1256;124132;-85
2023/02/10 01:59:34;;;;;;;;;;;;;;;0.75;73.34;102289.05;107517;1256;59628;-86
2023/02/10 02:02:06;;;;;;;;;;;;;;;0.69;73.49;102286.26;107595;1260;125839;-80
2023/02/10 02:04:37;;;;;;;;;;;;;;;0.63;73.61;102281.61;107614;1256;59432;-81
2023/02/10 02:07:05;;;;;;;;;;;;;;;0.60;73.66;102280.98;107332;1257;145824;-81
2023/02/10 02:09:33;;;;;;;;;;;;;;;0.61;73.84;102284.99;107671;1256;66100;-80
2023/02/10 02:12:10;;;;;;;;;;;;;;;0.60;73.77;102278.20;107819;1256;71294;-80
2023/02/10 02:14:38;;;;;;;;;;;;;;;0.61;74.08;102270.82;108179;1256;125200;-81
2023/02/10 02:17:07;;;;;;;;;;;;;;;0.64;74.10;102263.14;107395;1259;61244;-80
2023/02/10 02:20:39;;;;;;;;;;;;;;;0.69;74.35;102258.98;107445;1256;124846;-80
2023/02/10 02:22:54;;;;;;;;;;;;;;;0.73;74.26;102255.41;107759;1256;65836;-80
2023/02/10 02:25:20;;;;;;;;;;;;;;;0.70;74.06;102249.59;107435;1257;125515;-79
2023/02/10 02:28:05;;;;;;;;;;;;;;;0.66;74.07;102246.45;107633;1257;61423;-80
2023/02/10 02:30:37;;;;;;;;;;;;;;;0.62;74.16;102243.13;107583;1257;59956;-80
2023/02/10 02:33:04;;;;;;;;;;;;;;;0.60;74.11;102228.42;107342;1259;124910;-80
2023/02/10 02:35:36;;;;;;;;;;;;;;;0.61;74.40;102233.49;107733;1257;61262;-80
2023/02/10 02:38:02;;;;;;;;;;;;;;;0.64;74.33;102230.88;107428;1257;125685;-80
2023/02/10 02:40:29;;;;;;;;;;;;;;;0.69;74.54;102229.39;107603;1256;61298;-80
2023/02/10 02:42:55;;;;;;;;;;;;;;;0.76;74.75;102226.57;107595;1262;61326;-81
2023/02/10 02:45:44;;;;;;;;;;;;;;;0.85;74.65;102214.95;107497;1256;124042;-80
2023/02/10 02:48:17;;;;;;;;;;;;;;;0.97;74.87;102216.30;107654;1256;67222;-80
2023/02/10 02:50:49;;;;;;;;;;;;;;;1.06;74.80;102220.88;107628;1256;124448;-81
2023/02/10 02:53:24;;;;;;;;;;;;;;;1.14;74.74;102222.27;107657;1256;59550;-81
2023/02/10 02:56:06;;;;;;;;;;;;;;;1.20;74.72;102227.67;107720;1256;124939;-81
2023/02/10 02:58:32;;;;;;;;;;;;;;;1.23;74.56;102226.66;107772;1260;73422;-81
2023/02/10 03:01:04;;;;;;;;;;;;;;;1.26;74.44;102227.48;107698;1257;124308;-81
2023/02/10 03:03:35;;;;;;;;;;;;;;;1.30;74.58;102232.50;107598;1256;70969;-81
2023/02/10 03:06:01;;;;;;;;;;;;;;;1.32;74.47;102232.88;107570;1257;60062;-80
2023/02/10 03:08:31;;;;;;;;;;;;;;;1.34;74.38;102234.08;107527;1258;125073;-81
2023/02/10 03:10:57;;;;;;;;;;;;;;;1.38;74.40;102233.15;107618;1262;74886;-81
2023/02/10 03:13:23;;;;;;;;;;;;;;;1.43;74.45;102238.39;107764;1259;125500;-81
2023/02/10 03:15:49;;;;;;;;;;;;;;;1.46;74.34;102238.64;107163;1262;61379;-88
2023/02/10 03:18:16;;;;;;;;;;;;;;;1.46;74.15;102232.13;107341;1260;61922;-86
2023/02/10 03:20:46;;;;;;;;;;;;;;;1.47;74.28;102231.00;107470;1257;124878;-80
2023/02/10 03:23:12;;;;;;;;;;;;;;;1.49;74.16;102225.08;107616;1259;61200;-80
2023/02/10 03:25:38;;;;;;;;;;;;;;;1.48;74.09;102227.63;107440;1257;125745;-79
2023/02/10 03:28:07;;;;;;;;;;;;;;;1.48;74.06;102230.17;108771;1257;74058;-79
2023/02/10 03:30:34;;;;;;;;;;;;;;;1.49;74.04;102233.61;108793;1255;59324;-78
2023/02/10 03:33:00;;;;;;;;;;;;;;;1.52;74.14;102241.42;108382;1257;124246;-79
2023/02/10 03:35:26;;;;;;;;;;;;;;;1.53;74.29;102229.60;107757;1259;59590;-86
2023/02/10 03:37:53;;;;;;;;;;;;;;;1.55;74.10;102233.74;107375;1256;124933;-79
2023/02/10 03:40:19;;;;;;;;;;;;;;;1.56;74.33;102230.20;107640;1257;61288;-79
2023/02/10 03:42:45;;;;;;;;;;;;;;;1.56;74.19;102230.39;107807;1260;61253;-80
2023/02/10 03:45:11;;;;;;;;;;;;;;;1.55;74.07;102237.59;107346;1261;124808;-85
2023/02/10 03:47:38;;;;;;;;;;;;;;;1.55;74.21;102243.59;107583;1256;61315;-86
2023/02/10 03:50:04;;;;;;;;;;;;;;;1.57;74.03;102249.45;107349;1257;124918;-87
2023/02/10 03:52:30;;;;;;;;;;;;;;;1.59;74.25;102248.91;107337;1257;61170;-87
2023/02/10 03:54:56;;;;;;;;;;;;;;;1.61;74.31;102240.45;107061;1262;61289;-86
2023/02/10 03:57:23;;;;;;;;;;;;;;;1.61;74.27;102238.39;107141;1262;124521;-86
2023/02/10 03:59:49;;;;;;;;;;;;;;;1.60;74.23;102239.37;107416;1256;61345;-81
2023/02/10 04:02:15;;;;;;;;;;;;;;;1.59;74.41;102241.15;107527;1257;125287;-81
2023/02/10 04:04:42;;;;;;;;;;;;;;;1.58;74.13;102245.98;107659;1261;61373;-81
2023/02/10 04:07:08;;;;;;;;;;;;;;;1.58;74.20;102256.84;107524;1257;125495;-81
2023/02/10 04:09:34;;;;;;;;;;;;;;;1.60;74.27;102266.71;107573;1259;61367;-81
2023/02/10 04:12:01;;;;;;;;;;;;;;;1.63;74.50;102269.91;107552;1260;61372;-81
2023/02/10 04:14:27;;;;;;;;;;;;;;;1.68;74.62;102279.52;107616;1259;124864;-81
2023/02/10 04:16:59;;;;;;;;;;;;;;;1.74;74.60;102290.58;107801;1259;61317;-81
2023/02/10 04:19:25;;;;;;;;;;;;;;;1.80;74.81;102291.96;107196;1257;124925;-82
2023/02/10 04:21:52;;;;;;;;;;;;;;;1.85;74.56;102290.59;107382;1262;60257;-82
2023/02/10 04:24:18;;;;;;;;;;;;;;;1.90;74.64;102288.31;107386;1259;59856;-90
2023/02/10 04:26:44;;;;;;;;;;;;;;;1.94;74.76;102282.58;107073;1263;124896;-89
2023/02/10 04:29:11;;;;;;;;;;;;;;;2.02;74.71;102279.55;107217;1259;60392;-89
2023/02/10 04:31:37;;;;;;;;;;;;;;;2.08;74.70;102274.73;107066;1258;125028;-86
2023/02/10 04:34:04;;;;;;;;;;;;;;;2.13;74.80;102268.05;107140;1257;61919;-86
2023/02/10 04:36:33;;;;;;;;;;;;;;;2.18;74.79;102269.31;107024;1257;61389;-87
2023/02/10 04:38:59;;;;;;;;;;;;;;;2.23;74.84;102271.48;107197;1255;124013;-87
2023/02/10 04:41:25;;;;;;;;;;;;;;;2.27;74.73;102274.18;107464;1259;61398;-87
2023/02/10 04:43:52;;;;;;;;;;;;;;;2.31;74.71;102266.38;107086;1259;124008;-87
2023/02/10 04:46:18;;;;;;;;;;;;;;;2.32;74.74;102269.58;107210;1262;61769;-87
2023/02/10 04:48:48;;;;;;;;;;;;;;;2.33;74.66;102269.89;107345;1259;61298;-88
2023/02/10 04:51:15;;;;;;;;;;;;;;;2.35;74.65;102266.18;107207;1257;123837;-88
2023/02/10 04:53:47;;;;;;;;;;;;;;;2.36;74.61;102268.39;107213;1262;71248;-87
2023/02/10 04:56:13;;;;;;;;;;;;;;;2.37;74.64;102274.51;106938;1257;124591;-86
2023/02/10 04:58:39;;;;;;;;;;;;;;;2.37;74.57;102268.95;107341;1257;61199;-87
2023/02/10 05:01:06;;;;;;;;;;;;;;;2.36;74.61;102268.37;107362;1257;123031;-86
2023/02/10 05:03:33;;;;;;;;;;;;;;;2.37;74.62;102275.36;107327;1256;61362;-88
2023/02/10 05:06:11;;;;;;;;;;;;;;;2.37;74.77;102276.95;107440;1257;72689;-87
2023/02/10 05:08:41;;;;;;;;;;;;;;;2.36;74.82;102273.59;107489;1257;124963;-79
2023/02/10 05:11:11;;;;;;;;;;;;;;;2.35;74.56;102271.75;107602;1256;61153;-80
2023/02/10 05:13:37;;;;;;;;;;;;;;;2.34;74.94;102269.61;107611;1259;125004;-80
2023/02/10 05:16:04;;;;;;;;;;;;;;;2.34;74.92;102259.06;107527;1262;61124;-78
2023/02/10 05:18:30;;;;;;;;;;;;;;;2.35;74.82;102269.37;107667;1260;61150;-80
2023/02/10 05:20:57;;;;;;;;;;;;;;;2.36;74.93;102269.89;108479;1257;125330;-80
2023/02/10 05:23:23;;;;;;;;;;;;;;;2.37;74.83;102262.38;108879;1255;59054;-80
2023/02/10 05:25:49;;;;;;;;;;;;;;;2.38;74.97;102255.39;108879;1260;125213;-79
2023/02/10 05:28:15;;;;;;;;;;;;;;;2.42;74.96;102249.77;108965;1260;61124;-77
2023/02/10 05:30:41;;;;;;;;;;;;;;;2.43;74.88;102250.05;108977;1260;59250;-78
2023/02/10 05:33:08;;;;;;;;;;;;;;;2.47;74.97;102253.16;107855;1256;125045;-79
2023/02/10 05:35:34;;;;;;;;;;;;;;;2.50;75.05;102260.33;107411;1257;59237;-80
2023/02/10 05:38:03;;;;;;;;;;;;;;;2.50;74.89;102265.73;107022;1257;124897;-80
2023/02/10 05:40:30;;;;;;;;;;;;;;;2.53;74.84;102266.31;107604;1257;67265;-79
2023/02/10 05:42:56;;;;;;;;;;;;;;;2.55;75.14;102266.98;107440;1254;59768;-79
2023/02/10 05:45:22;;;;;;;;;;;;;;;2.57;74.94;102264.15;107131;1258;124962;-81
2023/02/10 05:47:49;;;;;;;;;;;;;;;2.58;75.03;102266.75;107238;1257;61366;-81
2023/02/10 05:50:17;;;;;;;;;;;;;;;2.62;75.17;102267.38;107298;1263;124038;-80
2023/02/10 05:52:43;;;;;;;;;;;;;;;2.63;75.12;102264.90;107720;1259;66164;-80
2023/02/10 05:55:10;;;;;;;;;;;;;;;2.62;75.04;102265.28;107332;1257;124571;-81
2023/02/10 05:57:36;;;;;;;;;;;;;;;2.60;74.98;102268.13;107588;1256;59749;-81
2023/02/10 06:00:03;;;;;;;;;;;;;;;2.58;74.98;102265.66;107669;1257;59559;-81
2023/02/10 06:02:30;;;;;;;;;;;;;;;2.57;74.91;102265.91;107348;1259;124843;-82
2023/02/10 06:04:56;;;;;;;;;;;;;;;2.56;74.95;102263.89;107419;1262;61173;-82
2023/02/10 06:07:22;;;;;;;;;;;;;;;2.56;75.07;102259.92;107221;1256;124347;-81
2023/02/10 06:09:49;;;;;;;;;;;;;;;2.54;74.91;102253.41;107423;1257;61268;-80
2023/02/10 06:12:15;;;;;;;;;;;;;;;2.54;75.14;102252.34;107367;1257;61323;-81
2023/02/10 06:14:41;;;;;;;;;;;;;;;2.53;75.03;102252.27;107285;1258;124892;-82
2023/02/10 06:17:08;;;;;;;;;;;;;;;2.52;75.11;102251.20;107394;1254;61316;-81
2023/02/10 06:19:38;;;;;;;;;;;;;;;2.51;75.32;102252.66;106993;1256;125131;-89
2023/02/10 06:22:36;;;;;;;;;;;;;;;2.53;75.40;102256.11;107177;1257;61219;-89
2023/02/10 06:25:03;;;;;;;;;;;;;;;2.56;75.28;102258.41;107028;1258;125583;-89
2023/02/10 06:27:29;;;;;;;;;;;;;;;2.56;75.32;102260.31;107445;1254;75118;-89
2023/02/10 06:29:56;;;;;;;;;;;;;;;2.56;75.27;102264.13;107439;1256;60488;-88
2023/02/10 06:32:22;;;;;;;;;;;;;;;2.56;75.35;102275.36;107120;1257;125158;-88
2023/02/10 06:34:49;;;;;;;;;;;;;;;2.57;75.44;102282.89;107392;1257;61294;-88
2023/02/10 06:37:20;;;;;;;;;;;;;;;2.58;75.41;102277.28;107171;1255;126106;-89
2023/02/10 06:39:47;;;;;;;;;;;;;;;2.60;75.45;102284.73;107104;1262;73376;-88
2023/02/10 06:42:14;;;;;;;;;;;;;;;2.63;75.55;102286.18;107492;1255;65532;-87
2023/02/10 06:44:40;;;;;;;;;;;;;;;2.67;75.67;102288.73;107316;1257;125246;-87
2023/02/10 06:47:10;;;;;;;;;;;;;;;2.71;75.52;102292.88;107281;1262;61302;-87
2023/02/10 06:49:36;;;;;;;;;;;;;;;2.76;75.73;102303.38;107132;1256;125408;-88
2023/02/10 06:52:02;;;;;;;;;;;;;;;2.80;75.58;102302.98;107329;1254;61951;-89
2023/02/10 06:54:29;;;;;;;;;;;;;;;2.81;75.60;102302.05;107461;1254;61196;-81
2023/02/10 06:56:55;;;;;;;;;;;;;;;2.87;75.80;102307.70;107594;1257;124645;-79
2023/02/10 06:59:21;;;;;;;;;;;;;;;2.91;75.57;102301.59;107613;1260;59919;-79
2023/02/10 07:01:47;;;;;;;;;;;;;;;2.95;75.69;102294.14;108785;1254;124100;-80
2023/02/10 07:04:14;;;;;;;;;;;;;;;2.98;75.51;102287.92;108091;1257;59276;-79
2023/02/10 07:06:40;;;;;;;;;;;;;;;3.01;75.75;102281.91;107379;1257;61285;-80
2023/02/10 07:09:06;;;;;;;;;;;;;;;3.05;75.89;102285.23;107325;1261;124984;-79
2023/02/10 07:11:33;;;;;;;;;;;;;;;3.13;76.01;102290.73;107524;1257;61402;-79
2023/02/10 07:14:02;;;;;;;;;;;;;;;3.18;75.95;102284.72;107576;1257;124503;-79
2023/02/10 07:16:30;;;;;;;;;;;;;;;3.23;75.96;102279.17;107717;1257;75323;-80
2023/02/10 07:18:57;;;;;;;;;;;;;;;3.23;75.74;102275.84;107688;1255;67303;-80
2023/02/10 07:21:23;;;;;;;;;;;;;;;3.20;75.83;102288.66;107401;1259;125383;-79
2023/02/10 07:23:49;;;;;;;;;;;;;;;3.18;75.86;102298.23;107481;1262;61361;-79
2023/02/10 07:26:17;;;;;;;;;;;;;;;3.19;75.84;102300.67;107436;1260;124953;-79
2023/02/10 07:28:44;;;;;;;;;;;;;;;3.17;75.87;102300.73;107483;1260;74411;-80
2023/02/10 07:31:10;;;;;;;;;;;;;;;3.16;75.83;102304.80;107284;1258;125095;-81
2023/02/10 07:33:40;;;;;;;;;;;;;;;3.15;75.98;102312.54;107631;1257;60569;-81
2023/02/10 07:36:06;;;;;;;;;;;;;;;3.15;76.06;102324.34;107504;1258;61176;-81
2023/02/10 07:38:33;;;;;;;;;;;;;;;3.14;76.12;102324.95;107737;1258;125698;-81
2023/02/10 07:40:59;;;;;;;;;;;;;;;3.15;75.98;102320.17;107876;1256;73346;-81
2023/02/10 07:43:26;;;;;;;;;;;;;;;3.16;76.10;102310.17;107526;1257;125015;-81
2023/02/10 07:45:52;;;;;;;;;;;;;;;3.17;76.18;102316.35;108929;1257;59133;-81
2023/02/10 07:48:18;;;;;;;;;;;;;;;3.20;76.11;102321.46;108847;1257;59110;-79
2023/02/10 07:50:46;;;;;;;;;;;;;;;3.23;76.28;102329.86;108796;1258;124331;-79
2023/02/10 07:53:12;;;;;;;;;;;;;;;3.29;76.26;102329.47;108628;1257;74612;-81
2023/02/10 07:55:38;;;;;;;;;;;;;;;3.37;76.26;102325.75;107366;1257;124341;-80
2023/02/10 07:58:05;;;;;;;;;;;;;;;3.46;76.36;102320.92;107619;1257;61361;-80
2023/02/10 08:00:32;;;;;;;;;;;;;;;3.59;76.39;102315.67;108945;1255;59423;-80
2023/02/10 08:02:59;;;;;;;;;;;;;;;3.81;76.46;102323.77;108726;1257;124167;-80
2023/02/10 08:05:26;;;;;;;;;;;;;;;4.01;76.33;102336.15;107524;1257;59676;-81
2023/02/10 08:07:52;;;;;;;;;;;;;;;4.11;76.03;102339.31;107399;1258;124725;-80
2023/02/10 08:10:18;;;;;;;;;;;;;;;4.16;75.80;102335.67;107705;1258;61416;-81
2023/02/10 08:12:46;;;;;;;;;;;;;;;4.22;75.83;102345.02;107529;1258;61381;-80
2023/02/10 08:15:16;;;;;;;;;;;;;;;4.26;75.56;102340.48;107530;1260;125722;-80
2023/02/10 08:17:43;;;;;;;;;;;;;;;4.31;75.45;102339.07;107481;1257;73717;-80
2023/02/10 08:20:10;;;;;;;;;;;;;;;4.31;75.36;102338.06;107374;1254;125257;-80
2023/02/10 08:22:36;;;;;;;;;;;;;;;4.36;75.21;102342.91;107501;1257;72531;-81
2023/02/10 08:25:02;;;;;;;;;;;;;;;4.44;75.20;102350.67;107814;1260;124911;-81
2023/02/10 08:27:29;;;;;;;;;;;;;;;4.57;75.17;102353.23;107865;1260;61260;-80
2023/02/10 08:29:57;;;;;;;;;;;;;;;4.72;75.11;102363.33;107516;1256;61177;-81
2023/02/10 08:32:23;;;;;;;;;;;;;;;4.88;75.11;102361.74;107249;1257;124422;-80
2023/02/10 08:34:50;;;;;;;;;;;;;;;5.02;74.92;102360.90;107415;1257;61317;-80
2023/02/10 08:37:16;;;;;;;;;;;;;;;5.12;74.68;102369.26;107402;1256;124289;-80
2023/02/10 08:39:42;;;;;;;;;;;;;;;5.22;74.48;102380.75;107544;1262;59274;-79
2023/02/10 08:42:09;;;;;;;;;;;;;;;5.26;74.21;102385.09;107756;1254;61260;-79
2023/02/10 08:44:35;;;;;;;;;;;;;;;5.38;74.28;102388.18;107435;1257;124925;-79
2023/02/10 08:47:01;;;;;;;;;;;;;;;5.41;73.90;102384.61;107734;1257;59385;-79
2023/02/10 08:49:28;;;;;;;;;;;;;;;5.40;73.69;102385.41;107509;1257;124986;-80
2023/02/10 08:51:55;;;;;;;;;;;;;;;5.37;73.58;102390.59;107629;1262;59601;-80
2023/02/10 08:54:21;;;;;;;;;;;;;;;5.31;73.48;102385.45;107605;1260;59805;-79
2023/02/10 08:56:47;;;;;;;;;;;;;;;5.24;73.34;102382.84;108648;1254;125758;-79
2023/02/10 08:59:14;;;;;;;;;;;;;;;5.22;73.39;102388.09;108896;1256;59143;-80
2023/02/10 09:01:40;;;;;;;;;;;;;;;5.26;73.54;102391.67;109023;1254;124987;-80
2023/02/10 09:04:06;;;;;;;;;;;;;;;5.36;73.59;102388.59;108921;1256;59230;-80
2023/02/10 09:06:43;;;;;;;;;;;;;;;5.51;73.54;102391.76;107767;1262;61605;-87
2023/02/10 09:09:10;;;;;;;;;;;;;;;5.63;73.47;102394.34;107124;1257;124808;-88
2023/02/10 09:11:36;;;;;;;;;;;;;;;5.80;73.45;102397.09;107104;1257;71359;-88
2023/02/10 09:14:03;;;;;;;;;;;;;;;5.93;73.20;102403.44;107217;1257;125417;-88
2023/02/10 09:16:29;;;;;;;;;;;;;;;6.01;72.93;102405.56;107486;1257;61234;-89
2023/02/10 09:18:56;;;;;;;;;;;;;;;6.12;73.05;102401.27;107399;1256;61438;-89
2023/02/10 09:21:26;;;;;;;;;;;;;;;6.23;72.82;102396.97;107192;1257;124825;-88
2023/02/10 09:23:52;;;;;;;;;;;;;;;6.29;72.66;102394.61;107228;1257;73042;-88
2023/02/10 09:26:19;;;;;;;;;;;;;;;6.36;72.48;102395.79;107169;1256;124657;-89
2023/02/10 09:28:45;;;;;;;;;;;;;;;6.45;72.46;102390.81;107344;1254;61179;-89
2023/02/10 09:31:11;;;;;;;;;;;;;;;6.56;72.34;102394.20;107240;1258;124281;-89
2023/02/10 09:33:38;;;;;;;;;;;;;;;6.63;72.17;102395.73;107300;1262;59998;-89
2023/02/10 09:36:35;;;;;;;;;;;;;;;6.64;71.93;102396.81;107421;1256;61071;-89
2023/02/10 09:39:04;;;;;;;;;;;;;;;6.57;71.69;102390.77;107107;1257;124200;-89
2023/02/10 09:41:30;;;;;;;;;;;;;;;6.50;71.63;102387.30;107044;1260;61475;-88
2023/02/10 09:43:59;;;;;;;;;;;;;;;6.43;71.66;102396.98;107114;1260;124752;-89
2023/02/10 09:46:25;;;;;;;;;;;;;;;6.39;71.67;102404.39;107425;1257;67016;-88
2023/02/10 09:49:11;;;;;;;;;;;;;;;6.36;71.67;102413.95;106940;1257;235691;-89
2023/02/10 09:51:43;;;;;;;;;;;;;;;6.40;71.82;102417.71;107285;1257;59648;-89
2023/02/10 09:54:10;;;;;;;;;;;;;;;6.48;71.91;102423.64;107208;1258;59901;-88
2023/02/10 09:56:36;;;;;;;;;;;;;;;6.57;71.81;102420.20;107175;1256;124258;-88
2023/02/10 09:59:03;;;;;;;;;;;;;;;6.71;71.77;102426.79;107111;1257;61195;-88
2023/02/10 10:01:34;;;;;;;;;;;;;;;6.78;71.45;102427.11;106963;1258;124877;-88
2023/02/10 10:04:33;;;;;;;;;;;;;;;6.76;71.19;102431.66;107279;1259;61362;-89
2023/02/10 10:07:05;;;;;;;;;;;;;;;6.77;71.15;102427.17;107407;1257;61260;-88
2023/02/10 10:09:41;;;;;;;;;;;;;;;6.86;71.24;102428.60;107151;1255;75235;-89
2023/02/10 10:12:08;;;;;;;;;;;;;;;6.90;70.99;102426.25;107266;1257;67110;-89
2023/02/10 10:14:35;;;;;;;;;;;;;;;6.87;70.83;102418.74;107034;1257;125420;-89
2023/02/10 10:17:09;;;;;;;;;;;;;;;6.85;70.78;102420.17;107259;1255;61266;-87
2023/02/10 10:19:44;;;;;;;;;;;;;;;6.80;70.60;102425.09;107140;1257;124772;-88
2023/02/10 10:22:18;;;;;;;;;;;;;;;6.74;70.55;102427.88;107239;1257;75114;-88
2023/02/10 10:24:48;;;;;;;;;;;;;;;6.73;70.61;102430.58;107340;1257;67354;-88
2023/02/10 10:27:24;;;;;;;;;;;;;;;6.74;70.63;102428.34;107293;1256;124386;-89
2023/02/10 10:30:02;;;;;;;;;;;;;;;6.77;70.63;102429.66;107440;1260;61269;-89
2023/02/10 10:32:31;;;;;;;;;;;;;;;6.80;70.57;102435.07;107117;1257;124058;-88
2023/02/10 10:34:59;;;;;;;;;;;;;;;6.85;70.63;102440.77;107365;1258;74487;-88
2023/02/10 10:37:25;;;;;;;;;;;;;;;6.85;70.51;102444.59;107269;1257;124328;-87
2023/02/10 10:39:52;;;;;;;;;;;;;;;6.76;70.36;102456.96;107273;1254;59969;-87
2023/02/10 10:42:18;;;;;;;;;;;;;;;6.62;70.29;102460.38;106994;1262;61561;-88
2023/02/10 10:44:45;;;;;;;;;;;;;;;6.46;70.24;102470.05;106996;1257;124269;-89
2023/02/10 10:47:15;;;;;;;;;;;;;;;6.30;70.64;102468.77;107137;1256;74726;-88
2023/02/10 10:49:47;;;;;;;;;;;;;;;6.22;70.90;102473.85;106875;1256;124781;-88
2023/02/10 10:52:20;;;;;;;;;;;;;;;6.18;71.05;102479.24;107332;1257;73811;-88
2023/02/10 10:54:46;;;;;;;;;;;;;;;6.15;71.18;102480.30;107109;1254;60457;-88
2023/02/10 10:57:12;;;;;;;;;;;;;;;6.15;71.29;102478.41;107106;1256;124021;-88
2023/02/10 10:59:58;;;;;;;;;;;;;;;6.15;71.26;102477.17;107123;1263;61388;-88
2023/02/10 11:02:25;;;;;;;;;;;;;;;6.13;71.22;102476.00;107030;1257;124103;-88
2023/02/10 11:05:05;;;;;;;;;;;;;;;6.15;71.13;102466.00;107063;1256;71308;-88
2023/02/10 11:07:32;;;;;;;;;;;;;;;6.19;71.04;102468.40;107029;1256;124294;-88
2023/02/10 11:09:58;;;;;;;;;;;;;;;6.21;71.04;102471.13;107122;1257;61391;-88
2023/02/10 11:12:34;;;;;;;;;;;;;;;6.27;71.09;102473.59;107319;1258;59742;-88
2023/02/10 11:15:42;;;;;;;;;;;;;;;6.32;71.12;102477.67;107289;1260;124677;-88
2023/02/10 11:18:21;;;;;;;;;;;;;;;6.42;71.06;102480.27;106870;1263;71461;-88
2023/02/10 11:20:53;;;;;;;;;;;;;;;6.44;70.98;102481.62;106899;1263;125108;-89
2023/02/10 11:23:51;;;;;;;;;;;;;;;6.51;70.92;102478.09;107172;1262;61287;-88
2023/02/10 11:26:23;;;;;;;;;;;;;;;6.60;70.85;102480.63;107071;1262;124761;-88
2023/02/10 11:28:50;;;;;;;;;;;;;;;6.73;70.76;102489.35;106890;1264;67505;-89
2023/02/10 11:31:31;;;;;;;;;;;;;;;6.83;70.64;102496.45;106890;1264;126265;-88
2023/02/10 11:34:06;;;;;;;;;;;;;;;6.78;70.33;102497.41;106975;1262;59898;-89
2023/02/10 11:36:37;;;;;;;;;;;;;;;6.74;70.21;102496.60;106909;1264;60396;-86
2023/02/10 11:39:06;;;;;;;;;;;;;;;6.76;70.25;102494.09;106752;1264;124415;-87
2023/02/10 11:41:32;;;;;;;;;;;;;;;6.72;70.11;102492.40;106819;1262;67340;-87
2023/02/10 11:43:59;;;;;;;;;;;;;;;6.60;69.97;102490.35;106520;1264;124429;-87
2023/02/10 11:46:26;;;;;;;;;;;;;;;6.38;69.82;102485.06;106598;1264;61251;-89
2023/02/10 11:48:53;;;;;;;;;;;;;;;6.21;69.92;102485.08;106704;1263;61304;-88
2023/02/10 11:51:19;;;;;;;;;;;;;;;6.09;70.11;102486.16;106790;1262;124772;-88
2023/02/10 11:53:50;;;;;;;;;;;;;;;6.00;70.20;102480.62;107417;1256;61269;-88
2023/02/10 11:56:21;;;;;;;;;;;;;;;5.89;70.43;102480.00;106995;1256;123954;-88
2023/02/10 11:59:04;;;;;;;;;;;;;;;5.80;70.49;102483.53;107138;1257;60854;-87
2023/02/10 12:01:40;;;;;;;;;;;;;;;5.66;70.56;102478.99;106948;1259;124235;-88
2023/02/10 12:04:25;;;;;;;;;;;;;;;5.49;70.62;102489.29;107266;1256;74053;-88
2023/02/10 12:06:53;;;;;;;;;;;;;;;5.30;70.66;102496.92;107111;1258;66955;-88
2023/02/10 12:09:26;;;;;;;;;;;;;;;5.18;70.99;102496.18;107347;1256;123891;-88
2023/02/10 12:11:55;;;;;;;;;;;;;;;5.11;71.19;102494.59;107342;1256;61154;-87
2023/02/10 12:14:37;;;;;;;;;;;;;;;5.06;71.39;102498.29;107157;1256;123943;-88
2023/02/10 12:17:04;;;;;;;;;;;;;;;4.97;71.48;102491.53;107197;1256;73364;-88
2023/02/10 12:20:03;;;;;;;;;;;;;;;4.93;71.52;102489.63;107088;1257;125093;-88
2023/02/10 12:22:48;;;;;;;;;;;;;;;4.83;71.73;102494.81;107392;1260;72923;-88
2023/02/10 12:25:23;;;;;;;;;;;;;;;4.74;71.70;102498.42;107369;1256;125162;-87
2023/02/10 12:27:59;;;;;;;;;;;;;;;4.65;71.77;102500.73;107376;1256;61105;-87
2023/02/10 12:30:33;;;;;;;;;;;;;;;4.59;71.89;102505.33;107051;1256;73166;-87
2023/02/10 12:33:02;;;;;;;;;;;;;;;4.54;72.00;102508.71;107104;1256;124593;-87
2023/02/10 12:35:35;;;;;;;;;;;;;;;4.51;72.19;102512.52;107271;1254;73211;-87
2023/02/10 12:38:01;;;;;;;;;;;;;;;4.51;72.33;102510.21;107326;1256;124628;-89
2023/02/10 12:40:31;;;;;;;;;;;;;;;4.48;72.32;102514.04;107546;1256;60386;-88